createdAt,value
2018-04-11T00:02:25.125Z,6.80
2018-04-11T00:04:52.612Z,7.33
2018-04-11T00:07:20.113Z,6.47
2018-04-11T00:09:48.292Z,6.33
2018-04-11T00:12:15.777Z,6.53
2018-04-11T00:14:43.232Z,6.63
2018-04-11T00:17:10.692Z,7.67
2018-04-11T00:19:38.180Z,7.00
2018-04-11T00:22:06.616Z,6.70
2018-04-11T00:24:34.085Z,7.20
2018-04-11T00:27:01.569Z,7.00
2018-04-11T00:29:29.029Z,8.50
2018-04-11T00:31:57.261Z,8.60
2018-04-11T00:34:24.749Z,8.47
2018-04-11T00:36:52.204Z,9.70
2018-04-11T00:39:19.669Z,9.50
2018-04-11T00:41:47.940Z,10.40
2018-04-11T00:44:15.405Z,10.07
2018-04-11T00:46:43.654Z,10.80
2018-04-11T00:49:11.145Z,10.87
2018-04-11T00:51:39.374Z,10.77
2018-04-11T00:54:06.854Z,11.90
2018-04-11T00:56:35.835Z,11.70
2018-04-11T00:59:03.297Z,10.40
2018-04-11T01:01:30.765Z,10.53
2018-04-11T01:03:58.252Z,11.00
2018-04-11T01:06:25.713Z,9.23
2018-04-11T01:08:53.176Z,9.00
2018-04-11T01:11:20.734Z,10.73
2018-04-11T01:13:48.193Z,11.57
2018-04-11T01:16:15.649Z,11.47
2018-04-11T01:18:43.138Z,10.40
2018-04-11T01:21:10.604Z,11.30
2018-04-11T01:23:38.849Z,10.30
2018-04-11T01:26:06.343Z,10.20
2018-04-11T01:28:33.805Z,11.43
2018-04-11T01:31:01.357Z,11.57
2018-04-11T01:33:29.542Z,11.47
2018-04-11T01:35:57.769Z,12.80
2018-04-11T01:38:25.257Z,13.20
2018-04-11T01:40:52.721Z,12.23
2018-04-11T01:43:20.182Z,13.80
2018-04-11T01:45:47.660Z,12.90
2018-04-11T01:48:15.117Z,13.73
2018-04-11T01:50:49.569Z,14.03
2018-04-11T01:53:17.042Z,16.40
2018-04-11T01:55:44.503Z,16.00
2018-04-11T01:58:11.996Z,14.70
2018-04-11T02:00:40.225Z,13.00
2018-04-11T02:03:07.689Z,12.07
2018-04-11T02:05:35.169Z,12.30
2018-04-11T02:08:02.636Z,12.13
2018-04-11T02:10:30.892Z,11.60
2018-04-11T02:12:59.174Z,12.20
2018-04-11T02:15:27.524Z,10.77
2018-04-11T02:17:55.021Z,11.00
2018-04-11T02:20:23.241Z,12.70
2018-04-11T02:22:50.708Z,13.20
2018-04-11T02:25:18.192Z,13.80
2018-04-11T02:27:45.657Z,12.57
2018-04-11T02:30:13.144Z,13.10
2018-04-11T02:32:40.614Z,11.60
2018-04-11T02:35:08.079Z,9.90
2018-04-11T02:37:35.558Z,10.17
2018-04-11T02:40:03.021Z,11.20
2018-04-11T02:42:30.480Z,11.47
2018-04-11T02:44:57.974Z,10.27
2018-04-11T02:47:26.225Z,9.50
2018-04-11T02:49:53.697Z,9.80
2018-04-11T02:52:21.922Z,9.30
2018-04-11T02:54:49.382Z,9.60
2018-04-11T02:57:16.860Z,8.50
2018-04-11T02:59:45.090Z,9.13
2018-04-11T03:02:12.556Z,8.30
2018-04-11T03:04:40.028Z,9.13
2018-04-11T03:07:07.484Z,8.40
2018-04-11T03:09:34.965Z,8.40
2018-04-11T03:12:02.412Z,9.40
2018-04-11T03:14:29.873Z,7.73
2018-04-11T03:16:58.121Z,8.10
2018-04-11T03:19:25.600Z,8.93
2018-04-11T03:21:53.075Z,8.87
2018-04-11T03:24:20.537Z,8.20
2018-04-11T03:26:48.764Z,9.13
2018-04-11T03:29:16.250Z,10.10
2018-04-11T03:31:43.709Z,8.90
2018-04-11T03:34:11.164Z,10.03
2018-04-11T03:36:38.718Z,8.80
2018-04-11T03:39:06.176Z,8.73
2018-04-11T03:41:33.745Z,7.70
2018-04-11T03:44:01.229Z,7.70
2018-04-11T03:46:28.680Z,7.30
2018-04-11T03:48:56.212Z,7.57
2018-04-11T03:51:24.440Z,8.17
2018-04-11T03:53:51.897Z,7.30
2018-04-11T03:56:19.384Z,9.03
2018-04-11T03:58:46.845Z,9.50
2018-04-11T04:01:15.071Z,8.90
2018-04-11T04:03:42.560Z,9.70
2018-04-11T04:06:10.018Z,9.70
2018-04-11T04:08:37.487Z,9.60
2018-04-11T04:11:04.972Z,8.97
2018-04-11T04:13:45.169Z,9.67
2018-04-11T04:16:24.604Z,8.57
2018-04-11T04:19:04.135Z,8.20
2018-04-11T04:21:31.637Z,8.90
2018-04-11T04:23:59.109Z,8.30
2018-04-11T04:26:26.564Z,8.67
2018-04-11T04:28:54.830Z,9.00
2018-04-11T04:31:22.292Z,10.40
2018-04-11T04:33:49.756Z,9.60
2018-04-11T04:36:17.228Z,9.20
2018-04-11T04:38:45.449Z,9.30
2018-04-11T04:41:12.917Z,10.33
2018-04-11T04:43:40.401Z,11.40
2018-04-11T04:46:08.624Z,10.80
2018-04-11T04:48:36.120Z,10.80
2018-04-11T04:51:03.582Z,11.50
2018-04-11T04:53:31.820Z,11.80
2018-04-11T04:55:59.305Z,10.73
2018-04-11T04:58:26.764Z,12.43
2018-04-11T05:00:54.232Z,12.23
2018-04-11T05:03:22.480Z,13.00
2018-04-11T05:05:50.717Z,12.43
2018-04-11T05:08:18.180Z,13.03
2018-04-11T05:10:45.667Z,13.00
2018-04-11T05:13:13.141Z,13.30
2018-04-11T05:15:40.616Z,12.57
2018-04-11T05:18:08.842Z,13.33
2018-04-11T05:20:36.324Z,12.47
2018-04-11T05:23:04.546Z,12.10
2018-04-11T05:25:32.013Z,12.37
2018-04-11T05:27:59.519Z,12.03
2018-04-11T05:30:27.772Z,13.73
2018-04-11T05:32:55.224Z,14.77
2018-04-11T05:35:22.704Z,14.37
2018-04-11T05:37:50.177Z,12.97
2018-04-11T05:40:18.420Z,12.87
2018-04-11T05:42:47.396Z,12.30
2018-04-11T05:45:14.868Z,12.77
2018-04-11T05:47:43.887Z,12.30
2018-04-11T05:50:12.113Z,12.83
2018-04-11T05:52:39.599Z,12.23
2018-04-11T05:55:07.078Z,11.73
2018-04-11T05:57:35.308Z,12.63
2018-04-11T06:00:02.808Z,12.13
2018-04-11T06:02:31.033Z,12.43
2018-04-11T06:04:58.499Z,11.70
2018-04-11T06:07:25.973Z,13.57
2018-04-11T06:09:54.945Z,14.73
2018-04-11T06:12:22.406Z,14.97
2018-04-11T06:14:49.880Z,13.30
2018-04-11T06:17:17.347Z,13.43
2018-04-11T06:19:45.602Z,14.23
2018-04-11T06:22:13.841Z,15.10
2018-04-11T06:24:41.304Z,14.73
2018-04-11T06:27:08.794Z,14.27
2018-04-11T06:29:36.253Z,14.30
2018-04-11T06:32:03.713Z,15.53
2018-04-11T06:34:31.205Z,15.23
2018-04-11T06:36:58.673Z,14.73
2018-04-11T06:39:26.164Z,15.60
2018-04-11T06:41:53.628Z,14.47
2018-04-11T06:44:21.577Z,13.70
2018-04-11T06:46:49.069Z,14.20
2018-04-11T06:49:16.530Z,13.90
2018-04-11T06:51:44.002Z,13.37
2018-04-11T06:54:12.249Z,13.10
2018-04-11T06:56:39.713Z,11.77
2018-04-11T06:59:07.183Z,11.87
2018-04-11T07:01:35.437Z,11.80
2018-04-11T07:04:02.897Z,14.93
2018-04-11T07:06:30.353Z,15.93
2018-04-11T07:08:57.856Z,15.47
2018-04-11T07:11:25.320Z,14.63
2018-04-11T07:13:52.796Z,14.40
2018-04-11T07:16:20.273Z,13.47
2018-04-11T07:18:47.743Z,12.90
2018-04-11T07:21:15.301Z,13.30
2018-04-11T07:23:42.803Z,12.77
2018-04-11T07:26:10.261Z,11.47
2018-04-11T07:28:37.744Z,12.37
2018-04-11T07:31:05.221Z,11.90
2018-04-11T07:33:32.693Z,12.23
2018-04-11T07:36:00.956Z,12.37
2018-04-11T07:38:28.464Z,12.07
2018-04-11T07:40:55.934Z,12.90
2018-04-11T07:43:23.405Z,12.27
2018-04-11T07:45:50.865Z,12.40
2018-04-11T07:48:18.361Z,12.63
2018-04-11T07:50:46.588Z,12.30
2018-04-11T07:53:15.092Z,12.33
2018-04-11T07:55:42.574Z,12.30
2018-04-11T07:58:10.811Z,11.53
2018-04-11T08:00:38.264Z,12.27
2018-04-11T08:03:05.785Z,12.33
2018-04-11T08:05:33.225Z,13.87
2018-04-11T08:08:00.734Z,12.17
2018-04-11T08:10:28.188Z,12.43
2018-04-11T08:12:55.649Z,13.27
2018-04-11T08:15:23.147Z,13.10
2018-04-11T08:17:51.403Z,13.40
2018-04-11T08:20:18.905Z,12.40
2018-04-11T08:22:46.373Z,13.00
2018-04-11T08:25:13.838Z,13.30
2018-04-11T08:27:41.324Z,13.10
2018-04-11T08:30:08.893Z,12.63
2018-04-11T08:32:37.132Z,14.23
2018-04-11T08:35:04.635Z,14.70
2018-04-11T08:37:32.869Z,13.97
2018-04-11T08:40:00.327Z,15.10
2018-04-11T08:42:27.813Z,15.90
2018-04-11T08:44:55.273Z,16.30
2018-04-11T08:47:23.527Z,15.70
2018-04-11T08:49:50.980Z,16.30
2018-04-11T08:52:19.234Z,16.63
2018-04-11T08:54:46.704Z,16.10
2018-04-11T08:57:14.181Z,15.97
2018-04-11T08:59:41.647Z,15.63
2018-04-11T09:02:09.131Z,16.53
2018-04-11T09:04:36.594Z,16.63
2018-04-11T09:07:04.099Z,17.70
2018-04-11T09:09:31.557Z,16.57
2018-04-11T09:11:59.040Z,17.77
2018-04-11T09:14:27.310Z,17.80
2018-04-11T09:16:55.547Z,18.27
2018-04-11T09:19:23.248Z,18.07
2018-04-11T09:21:51.501Z,17.63
2018-04-11T09:24:18.966Z,18.60
2018-04-11T09:26:46.457Z,19.00
2018-04-11T09:29:13.920Z,17.10
2018-04-11T09:31:41.422Z,18.77
2018-04-11T09:34:08.876Z,19.20
2018-04-11T09:36:36.337Z,18.90
2018-04-11T09:39:05.333Z,21.30
2018-04-11T09:41:34.314Z,20.70
2018-04-11T09:44:01.785Z,21.13
2018-04-11T09:46:29.281Z,21.20
2018-04-11T09:48:56.763Z,23.03
2018-04-11T09:51:24.229Z,23.17
2018-04-11T09:53:51.721Z,21.97
2018-04-11T09:56:19.949Z,22.90
2018-04-11T09:58:47.412Z,23.57
2018-04-11T10:01:18.800Z,23.23
2018-04-11T10:03:46.265Z,23.20
2018-04-11T10:06:14.511Z,21.73
2018-04-11T10:08:41.976Z,15.40
2018-04-11T10:11:10.209Z,15.30
2018-04-11T10:13:37.701Z,15.53
2018-04-11T10:16:05.165Z,16.10
2018-04-11T10:18:32.634Z,15.67
2018-04-11T10:21:00.110Z,15.60
2018-04-11T10:23:27.604Z,16.63
2018-04-11T10:25:55.071Z,16.80
2018-04-11T10:28:22.539Z,16.20
2018-04-11T10:30:50.043Z,16.40
2018-04-11T10:33:17.505Z,15.77
2018-04-11T10:35:46.060Z,17.77
2018-04-11T10:38:14.305Z,16.47
2018-04-11T10:40:41.780Z,16.50
2018-04-11T10:43:09.265Z,16.80
2018-04-11T10:45:36.760Z,16.50
2018-04-11T10:48:04.216Z,17.63
2018-04-11T10:50:31.690Z,17.30
2018-04-11T10:52:59.163Z,17.57
2018-04-11T10:55:26.628Z,18.90
2018-04-11T10:57:54.861Z,20.00
2018-04-11T11:00:22.349Z,20.43
2018-04-11T11:02:49.812Z,19.80
2018-04-11T11:05:17.280Z,22.20
2018-04-11T11:07:45.532Z,23.50
2018-04-11T11:10:13.005Z,24.17
2018-04-11T11:12:40.519Z,21.33
2018-04-11T11:15:07.973Z,20.00
2018-04-11T11:17:35.441Z,20.03
2018-04-11T11:20:02.927Z,19.57
2018-04-11T11:22:30.387Z,19.20
2018-04-11T11:24:58.620Z,16.90
2018-04-11T11:27:26.113Z,16.17
2018-04-11T11:29:53.577Z,13.47
2018-04-11T11:32:21.855Z,13.57
2018-04-11T11:34:50.089Z,13.80
2018-04-11T11:37:17.583Z,12.43
2018-04-11T11:39:45.053Z,13.77
2018-04-11T11:42:13.279Z,13.40
2018-04-11T11:44:40.762Z,14.90
2018-04-11T11:47:08.239Z,13.70
2018-04-11T11:49:36.464Z,14.60
2018-04-11T11:52:04.763Z,14.10
2018-04-11T11:54:32.198Z,14.67
2018-04-11T11:56:59.696Z,14.63
2018-04-11T11:59:27.150Z,16.17
2018-04-11T12:01:55.377Z,17.20
2018-04-11T12:04:22.860Z,17.40
2018-04-11T12:06:50.332Z,16.07
2018-04-11T12:09:17.793Z,18.50
2018-04-11T12:11:45.289Z,17.63
2018-04-11T12:14:12.773Z,21.27
2018-04-11T12:16:40.270Z,18.80
2018-04-11T12:19:07.733Z,18.67
2018-04-11T12:21:36.036Z,18.67
2018-04-11T12:24:03.505Z,20.30
2018-04-11T12:26:31.003Z,20.97
2018-04-11T12:28:58.474Z,19.47
2018-04-11T12:31:25.944Z,19.67
2018-04-11T12:33:54.164Z,18.93
2018-04-11T12:36:21.651Z,19.87
2018-04-11T12:38:49.128Z,20.63
2018-04-11T12:41:16.603Z,21.37
2018-04-11T12:43:44.082Z,22.87
2018-04-11T12:46:11.546Z,20.80
2018-04-11T12:48:39.961Z,19.63
2018-04-11T12:51:08.204Z,23.77
2018-04-11T12:53:35.675Z,21.67
2018-04-11T12:56:03.161Z,21.57
2018-04-11T12:58:31.414Z,21.47
2018-04-11T13:00:58.888Z,22.33
2018-04-11T13:03:27.146Z,23.93
2018-04-11T13:05:55.388Z,24.60
2018-04-11T13:08:22.889Z,23.20
2018-04-11T13:10:50.371Z,23.10
2018-04-11T13:13:17.844Z,26.73
2018-04-11T13:15:45.321Z,25.50
2018-04-11T13:18:12.832Z,27.90
2018-04-11T13:20:40.248Z,26.60
2018-04-11T13:23:08.518Z,24.10
2018-04-11T13:25:36.037Z,25.10
2018-04-11T13:28:04.469Z,22.20
2018-04-11T13:30:31.925Z,26.10
2018-04-11T13:32:59.388Z,26.17
2018-04-11T13:35:26.879Z,27.77
2018-04-11T13:37:54.341Z,29.50
2018-04-11T13:40:21.798Z,27.67
2018-04-11T13:42:49.293Z,26.90
2018-04-11T13:45:16.755Z,27.23
2018-04-11T13:47:44.242Z,28.40
2018-04-11T13:50:12.482Z,28.07
2018-04-11T13:52:39.970Z,29.03
2018-04-11T13:55:08.221Z,26.87
2018-04-11T13:57:35.753Z,26.00
2018-04-11T14:00:03.210Z,25.80
2018-04-11T14:02:30.681Z,26.10
2018-04-11T14:04:58.163Z,26.10
2018-04-11T14:07:25.653Z,23.77
2018-04-11T14:09:53.109Z,27.27
2018-04-11T14:12:20.607Z,28.03
2018-04-11T14:14:48.072Z,25.30
2018-04-11T14:17:15.537Z,26.10
2018-04-11T14:19:44.524Z,26.40
2018-04-11T14:22:12.754Z,25.73
2018-04-11T14:24:40.264Z,26.67
2018-04-11T14:27:07.725Z,26.73
2018-04-11T14:29:35.206Z,26.43
2018-04-11T14:32:03.476Z,27.63
2018-04-11T14:34:31.716Z,26.30
2018-04-11T14:36:59.196Z,28.03
2018-04-11T14:39:27.453Z,28.60
2018-04-11T14:41:54.919Z,27.77
2018-04-11T14:44:22.416Z,29.40
2018-04-11T14:46:49.881Z,32.00
2018-04-11T14:49:17.364Z,31.33
2018-04-11T14:51:44.838Z,36.17
2018-04-11T14:54:12.370Z,38.67
2018-04-11T14:56:39.860Z,37.07
2018-04-11T14:59:07.359Z,39.13
2018-04-11T15:01:34.828Z,37.20
2018-04-11T15:04:02.313Z,40.47
2018-04-11T15:06:29.772Z,40.10
2018-04-11T15:08:57.262Z,39.10
2018-04-11T15:11:25.526Z,35.97
2018-04-11T15:13:52.997Z,37.27
2018-04-11T15:16:21.221Z,36.70
2018-04-11T15:18:48.705Z,39.60
2018-04-11T15:21:16.168Z,41.00
2018-04-11T15:23:43.652Z,42.10
2018-04-11T15:26:11.228Z,41.23
2018-04-11T15:28:38.684Z,38.80
2018-04-11T15:31:06.177Z,40.80
2018-04-11T15:33:33.643Z,41.97
2018-04-11T15:36:01.979Z,37.80
2018-04-11T15:38:29.449Z,35.20
2018-04-11T15:40:56.924Z,36.27
2018-04-11T15:43:24.553Z,33.70
2018-04-11T15:45:53.008Z,35.80
2018-04-11T15:48:20.471Z,36.40
2018-04-11T15:50:48.012Z,32.93
2018-04-11T15:53:15.470Z,34.20
2018-04-11T15:55:44.554Z,34.93
2018-04-11T15:58:12.112Z,33.50
2018-04-11T16:00:39.580Z,34.00
2018-04-11T16:03:07.821Z,37.20
2018-04-11T16:05:36.955Z,30.50
2018-04-11T16:08:06.172Z,33.20
2018-04-11T16:10:33.634Z,32.07
2018-04-11T16:13:01.092Z,32.70
2018-04-11T16:15:28.584Z,34.20
2018-04-11T16:17:56.048Z,33.87
2018-04-11T16:20:23.559Z,32.97
2018-04-11T16:22:51.025Z,32.70
2018-04-11T16:25:18.492Z,32.47
2018-04-11T16:27:45.985Z,30.20
2018-04-11T16:30:13.486Z,29.90
2018-04-11T16:32:40.942Z,30.10
2018-04-11T16:35:08.441Z,30.67
2018-04-11T16:37:35.917Z,29.80
2018-04-11T16:40:04.155Z,29.70
2018-04-11T16:42:31.686Z,30.60
2018-04-11T16:44:59.148Z,30.27
2018-04-11T16:47:26.646Z,31.03
2018-04-11T16:49:54.117Z,31.70
2018-04-11T16:52:22.353Z,31.20
2018-04-11T16:54:49.849Z,30.80
2018-04-11T16:57:17.316Z,30.10
2018-04-11T16:59:45.599Z,29.37
2018-04-11T17:02:13.834Z,29.33
2018-04-11T17:04:41.353Z,30.60
2018-04-11T17:07:08.826Z,30.17
2018-04-11T17:09:36.351Z,29.80
2018-04-11T17:12:03.777Z,31.33
2018-04-11T17:14:31.253Z,29.90
2018-04-11T17:16:59.586Z,30.70
2018-04-11T17:19:27.037Z,28.23
2018-04-11T17:22:06.551Z,30.77
2018-04-11T17:24:46.129Z,31.80
2018-04-11T17:27:25.409Z,29.57
2018-04-11T17:30:05.708Z,29.43
2018-04-11T17:32:33.183Z,27.43
2018-04-11T17:35:00.676Z,31.80
2018-04-11T17:37:28.914Z,31.87
2018-04-11T17:39:56.388Z,30.73
2018-04-11T17:42:23.856Z,31.17
2018-04-11T17:44:52.100Z,31.23
2018-04-11T17:47:20.341Z,32.40
2018-04-11T17:49:47.813Z,27.30
2018-04-11T17:52:15.310Z,29.40
2018-04-11T17:54:42.778Z,29.20
2018-04-11T17:57:11.042Z,29.70
2018-04-11T17:59:39.285Z,29.53
2018-04-11T18:02:06.750Z,30.23
2018-04-11T18:04:34.243Z,31.00
2018-04-11T18:07:02.465Z,31.30
2018-04-11T18:09:29.944Z,32.30
2018-04-11T18:11:57.411Z,30.77
2018-04-11T18:14:24.874Z,31.33
2018-04-11T18:16:53.183Z,30.20
2018-04-11T18:19:20.626Z,30.87
2018-04-11T18:21:48.097Z,30.87
2018-04-11T18:24:15.590Z,29.00
2018-04-11T18:26:43.084Z,30.87
2018-04-11T18:29:11.317Z,29.90
2018-04-11T18:31:38.797Z,31.50
2018-04-11T18:34:06.270Z,30.80
2018-04-11T18:36:34.515Z,31.77
2018-04-11T18:39:02.005Z,30.23
2018-04-11T18:41:30.241Z,30.43
2018-04-11T18:43:57.729Z,31.23
2018-04-11T18:46:25.974Z,32.10
2018-04-11T18:48:53.438Z,29.97
2018-04-11T18:51:21.705Z,28.50
2018-04-11T18:53:49.176Z,28.30
2018-04-11T18:56:17.409Z,28.17
2018-04-11T18:58:44.893Z,30.00
2018-04-11T19:01:12.357Z,31.03
2018-04-11T19:03:39.836Z,26.17
2018-04-11T19:06:08.064Z,26.27
2018-04-11T19:08:35.562Z,21.10
2018-04-11T19:11:03.058Z,21.77
2018-04-11T19:13:30.600Z,19.07
2018-04-11T19:15:58.020Z,17.83
2018-04-11T19:18:25.511Z,16.77
2018-04-11T19:20:53.744Z,16.53
2018-04-11T19:23:21.238Z,15.80
2018-04-11T19:25:49.476Z,15.50
2018-04-11T19:28:16.949Z,15.27
2018-04-11T19:30:44.425Z,14.90
2018-04-11T19:33:12.671Z,13.53
2018-04-11T19:35:40.924Z,12.70
2018-04-11T19:38:08.418Z,13.07
2018-04-11T19:40:36.670Z,13.97
2018-04-11T19:43:04.753Z,13.17
2018-04-11T19:45:33.001Z,15.07
2018-04-11T19:48:00.487Z,13.30
2018-04-11T19:50:27.951Z,12.67
2018-04-11T19:52:55.438Z,14.80
2018-04-11T19:55:22.913Z,15.97
2018-04-11T19:57:50.389Z,14.80
2018-04-11T20:00:17.897Z,13.60
2018-04-11T20:02:46.120Z,13.67
2018-04-11T20:05:13.609Z,12.20
2018-04-11T20:07:41.111Z,12.17
2018-04-11T20:10:08.581Z,10.97
2018-04-11T20:12:36.041Z,12.13
2018-04-11T20:15:03.543Z,10.77
2018-04-11T20:17:31.036Z,11.63
2018-04-11T20:19:58.507Z,10.40
2018-04-11T20:22:26.007Z,12.60
2018-04-11T20:24:54.985Z,12.47
2018-04-11T20:27:22.456Z,12.53
2018-04-11T20:29:49.952Z,12.37
2018-04-11T20:32:17.418Z,12.90
2018-04-11T20:34:44.926Z,12.20
2018-04-11T20:37:12.389Z,12.97
2018-04-11T20:39:40.641Z,12.23
2018-04-11T20:42:08.101Z,14.03
2018-04-11T20:44:37.063Z,12.33
2018-04-11T20:47:04.550Z,12.70
2018-04-11T20:49:32.007Z,13.40
2018-04-11T20:51:59.461Z,13.73
2018-04-11T20:54:26.929Z,14.30
2018-04-11T20:56:55.200Z,13.13
2018-04-11T20:59:22.680Z,12.90
2018-04-11T21:01:50.922Z,11.53
2018-04-11T21:04:18.397Z,12.53
2018-04-11T21:06:45.889Z,12.60
2018-04-11T21:09:13.353Z,11.90
2018-04-11T21:11:40.835Z,12.90
2018-04-11T21:14:09.201Z,13.20
2018-04-11T21:16:36.652Z,13.17
2018-04-11T21:19:04.128Z,13.57
2018-04-11T21:21:31.612Z,13.57
2018-04-11T21:23:59.157Z,13.90
2018-04-11T21:26:28.144Z,13.30
2018-04-11T21:28:55.620Z,13.13
2018-04-11T21:31:23.865Z,12.50
2018-04-11T21:33:51.350Z,15.83
2018-04-11T21:36:18.817Z,13.93
2018-04-11T21:38:47.053Z,13.47
2018-04-11T21:41:14.537Z,15.00
2018-04-11T21:43:41.997Z,15.57
2018-04-11T21:46:10.256Z,15.53
2018-04-11T21:48:37.700Z,17.57
2018-04-11T21:51:05.165Z,15.67
2018-04-11T21:53:32.649Z,16.00
2018-04-11T21:56:00.884Z,16.20
2018-04-11T21:58:28.342Z,16.27
2018-04-11T22:00:55.825Z,15.20
2018-04-11T22:03:24.072Z,15.50
2018-04-11T22:05:51.542Z,16.87
2018-04-11T22:08:19.009Z,15.87
2018-04-11T22:10:46.488Z,16.33
2018-04-11T22:13:14.725Z,17.47
2018-04-11T22:15:42.185Z,18.43
2018-04-11T22:18:09.692Z,17.93
2018-04-11T22:20:37.148Z,17.17
2018-04-11T22:23:04.632Z,17.10
2018-04-11T22:25:32.096Z,17.80
2018-04-11T22:27:59.558Z,17.87
2018-04-11T22:30:27.033Z,17.73
2018-04-11T22:32:54.498Z,17.70
2018-04-11T22:35:21.969Z,17.43
2018-04-11T22:37:50.216Z,18.00
2018-04-11T22:40:17.677Z,19.20
2018-04-11T22:42:45.937Z,19.93
2018-04-11T22:45:13.405Z,18.83
2018-04-11T22:47:40.876Z,19.47
2018-04-11T22:50:09.142Z,18.60
2018-04-11T22:52:36.600Z,18.40
2018-04-11T22:55:04.077Z,17.97
2018-04-11T22:57:32.305Z,18.23
2018-04-11T22:59:59.772Z,18.97
2018-04-11T23:02:27.254Z,18.63
2018-04-11T23:04:55.489Z,18.93
2018-04-11T23:07:22.956Z,18.10
2018-04-11T23:09:50.429Z,18.97
2018-04-11T23:12:18.765Z,17.70
2018-04-11T23:14:46.252Z,17.70
2018-04-11T23:17:13.712Z,18.97
2018-04-11T23:19:41.939Z,20.13
2018-04-11T23:22:09.423Z,21.70
2018-04-11T23:24:36.908Z,19.60
2018-04-11T23:27:05.139Z,21.67
2018-04-11T23:29:32.649Z,23.07
2018-04-11T23:32:00.913Z,23.90
2018-04-11T23:34:29.129Z,21.50
2018-04-11T23:36:56.605Z,24.77
2018-04-11T23:39:24.066Z,25.73
2018-04-11T23:41:51.539Z,24.70
2018-04-11T23:44:18.989Z,22.53
2018-04-11T23:46:46.445Z,24.60
2018-04-11T23:49:13.940Z,25.67
2018-04-11T23:51:42.200Z,28.73
2018-04-11T23:54:11.189Z,29.73
2018-04-11T23:56:38.650Z,27.73
2018-04-11T23:59:06.899Z,30.63
